createdAt,value
2022-11-04T00:01:53.833Z,5.90
2022-11-04T00:04:24.021Z,4.88
2022-11-04T00:06:52.642Z,6.63
2022-11-04T00:09:23.420Z,6.68
2022-11-04T00:12:09.830Z,6.05
2022-11-04T00:14:37.651Z,6.68
2022-11-04T00:17:24.760Z,4.15
2022-11-04T00:20:13.450Z,5.00
2022-11-04T00:23:01.133Z,4.32
2022-11-04T00:25:48.398Z,5.45
2022-11-04T00:28:37.859Z,5.78
2022-11-04T00:31:26.849Z,4.55
2022-11-04T00:33:56.848Z,2.53
2022-11-04T00:36:25.546Z,4.45
2022-11-04T00:38:53.442Z,4.28
2022-11-04T00:41:28.030Z,1.65
2022-11-04T00:44:02.111Z,1.58
2022-11-04T00:46:32.247Z,2.13
2022-11-04T00:48:59.600Z,1.45
2022-11-04T00:51:27.207Z,1.20
2022-11-04T00:53:54.842Z,0.93
2022-11-04T00:56:23.114Z,1.45
2022-11-04T00:58:50.675Z,0.95
2022-11-04T01:01:19.490Z,1.48
2022-11-04T01:03:49.929Z,0.80
2022-11-04T01:06:18.366Z,0.90
2022-11-04T01:08:46.358Z,1.30
2022-11-04T01:11:15.245Z,1.60
2022-11-04T01:13:42.362Z,1.63
2022-11-04T01:16:11.493Z,1.80
2022-11-04T01:18:41.754Z,1.63
2022-11-04T01:21:13.238Z,2.80
2022-11-04T01:23:43.154Z,4.80
2022-11-04T01:26:20.246Z,5.03
2022-11-04T01:28:47.857Z,3.88
2022-11-04T01:31:21.470Z,4.25
2022-11-04T01:33:53.180Z,7.57
2022-11-04T01:36:21.704Z,12.15
2022-11-04T01:38:49.448Z,8.40
2022-11-04T01:41:21.309Z,9.60
2022-11-04T01:43:54.376Z,11.15
2022-11-04T01:46:42.163Z,13.05
2022-11-04T01:49:29.013Z,12.23
2022-11-04T01:52:08.593Z,11.30
2022-11-04T01:54:37.461Z,11.75
2022-11-04T01:57:14.772Z,10.85
2022-11-04T01:59:42.712Z,10.98
2022-11-04T02:02:10.506Z,11.68
2022-11-04T02:04:40.582Z,11.55
2022-11-04T02:07:10.920Z,13.93
2022-11-04T02:09:41.189Z,12.77
2022-11-04T02:12:27.900Z,11.18
2022-11-04T02:14:57.365Z,13.68
2022-11-04T02:18:08.613Z,11.80
2022-11-04T02:21:32.642Z,9.65
2022-11-04T02:24:47.560Z,10.38
2022-11-04T02:27:33.525Z,9.35
2022-11-04T02:30:05.910Z,11.55
2022-11-04T02:33:11.472Z,10.20
2022-11-04T02:36:02.487Z,10.52
2022-11-04T02:39:08.086Z,8.88
2022-11-04T02:41:59.085Z,11.98
2022-11-04T02:44:42.453Z,10.95
2022-11-04T02:47:17.614Z,9.38
2022-11-04T02:50:03.139Z,10.25
2022-11-04T02:52:44.845Z,12.35
2022-11-04T02:55:25.773Z,9.17
2022-11-04T02:57:59.202Z,11.20
2022-11-04T03:00:26.687Z,9.30
2022-11-04T03:03:01.516Z,9.93
2022-11-04T03:05:35.015Z,8.30
2022-11-04T03:08:11.048Z,9.77
2022-11-04T03:10:48.579Z,11.00
2022-11-04T03:13:28.911Z,10.43
2022-11-04T03:16:03.470Z,10.55
2022-11-04T03:18:48.044Z,10.68
2022-11-04T03:21:17.031Z,7.80
2022-11-04T03:23:44.087Z,11.50
2022-11-04T03:26:40.046Z,9.05
2022-11-04T03:29:25.339Z,7.78
2022-11-04T03:32:22.243Z,8.18
2022-11-04T03:34:50.133Z,9.82
2022-11-04T03:37:17.590Z,15.90
2022-11-04T03:39:44.800Z,9.20
2022-11-04T03:42:21.247Z,12.88
2022-11-04T03:44:55.491Z,7.53
2022-11-04T03:47:28.023Z,8.20
2022-11-04T03:50:13.363Z,13.43
2022-11-04T03:52:40.724Z,11.00
2022-11-04T03:55:11.483Z,8.15
2022-11-04T03:58:09.668Z,9.45
2022-11-04T04:00:52.025Z,8.15
2022-11-04T04:03:33.134Z,9.65
2022-11-04T04:06:18.285Z,8.40
2022-11-04T04:09:00.926Z,8.20
2022-11-04T04:11:55.211Z,8.73
2022-11-04T04:14:40.076Z,6.03
2022-11-04T04:20:01.314Z,7.00
2022-11-04T04:22:40.759Z,9.45
2022-11-04T04:25:30.893Z,8.15
2022-11-04T04:28:04.977Z,5.47
2022-11-04T04:30:35.333Z,9.52
2022-11-04T04:33:09.526Z,9.95
2022-11-04T04:35:46.922Z,9.13
2022-11-04T04:38:43.826Z,8.60
2022-11-04T04:41:46.202Z,7.68
2022-11-04T04:44:49.906Z,8.18
2022-11-04T04:47:23.515Z,6.13
2022-11-04T04:49:59.685Z,5.10
2022-11-04T04:52:40.021Z,8.13
2022-11-04T04:55:08.686Z,6.63
2022-11-04T04:57:36.097Z,9.95
2022-11-04T05:00:06.164Z,6.28
2022-11-04T05:02:33.570Z,7.22
2022-11-04T05:05:01.735Z,7.32
2022-11-04T05:07:28.837Z,7.50
2022-11-04T05:09:56.013Z,6.82
2022-11-04T05:12:24.234Z,8.90
2022-11-04T05:14:51.261Z,7.13
2022-11-04T05:17:18.231Z,7.05
2022-11-04T05:19:45.226Z,8.55
2022-11-04T05:22:12.414Z,6.70
2022-11-04T05:24:39.377Z,7.72
2022-11-04T05:27:06.530Z,8.40
2022-11-04T05:29:33.560Z,9.40
2022-11-04T05:32:00.591Z,9.38
2022-11-04T05:34:27.633Z,10.73
2022-11-04T05:36:54.654Z,6.22
2022-11-04T05:39:21.721Z,8.82
2022-11-04T05:41:48.701Z,9.60
2022-11-04T05:44:15.901Z,11.00
2022-11-04T05:46:42.991Z,12.70
2022-11-04T05:49:11.036Z,7.35
2022-11-04T05:51:38.193Z,10.77
2022-11-04T05:54:05.383Z,11.60
2022-11-04T05:56:32.415Z,6.85
2022-11-04T05:58:59.455Z,10.35
2022-11-04T06:01:39.203Z,8.40
2022-11-04T06:04:13.915Z,11.40
2022-11-04T06:06:41.326Z,8.93
2022-11-04T06:09:08.785Z,9.10
2022-11-04T06:11:37.695Z,10.40
2022-11-04T06:14:05.719Z,14.55
2022-11-04T06:16:32.778Z,14.60
2022-11-04T06:19:03.419Z,18.67
2022-11-04T06:21:36.141Z,13.27
2022-11-04T06:24:03.360Z,14.50
2022-11-04T06:26:33.078Z,11.75
2022-11-04T06:29:00.106Z,13.30
2022-11-04T06:31:29.655Z,10.90
2022-11-04T06:33:56.765Z,8.60
2022-11-04T06:36:23.782Z,9.90
2022-11-04T06:38:50.910Z,13.20
2022-11-04T06:41:18.256Z,13.55
2022-11-04T06:43:45.509Z,12.98
2022-11-04T06:46:38.386Z,12.52
2022-11-04T06:49:09.973Z,11.50
2022-11-04T06:51:44.750Z,10.75
2022-11-04T06:54:13.813Z,10.27
2022-11-04T06:56:41.399Z,10.35
2022-11-04T06:59:20.353Z,13.30
2022-11-04T07:01:50.684Z,12.75
2022-11-04T07:04:18.165Z,11.65
2022-11-04T07:06:45.563Z,13.80
2022-11-04T07:09:15.329Z,16.10
2022-11-04T07:11:44.211Z,16.50
2022-11-04T07:14:12.682Z,10.57
2022-11-04T07:16:39.958Z,10.90
2022-11-04T07:19:07.221Z,10.32
2022-11-04T07:21:34.438Z,15.43
2022-11-04T07:24:02.167Z,11.43
2022-11-04T07:26:29.166Z,13.75
2022-11-04T07:28:56.174Z,11.88
2022-11-04T07:31:23.358Z,12.88
2022-11-04T07:33:51.789Z,9.73
2022-11-04T07:36:20.060Z,11.82
2022-11-04T07:38:49.834Z,15.75
2022-11-04T07:41:18.001Z,25.60
2022-11-04T07:43:52.804Z,30.52
2022-11-04T07:46:21.318Z,32.47
2022-11-04T07:48:48.390Z,43.30
2022-11-04T07:51:18.151Z,33.17
2022-11-04T07:53:45.510Z,17.45
2022-11-04T07:56:14.470Z,21.92
2022-11-04T07:58:41.708Z,16.50
2022-11-04T08:01:16.638Z,16.00
2022-11-04T08:03:43.772Z,16.92
2022-11-04T08:06:14.751Z,15.82
2022-11-04T08:08:43.675Z,18.95
2022-11-04T08:11:17.638Z,14.40
2022-11-04T08:13:47.539Z,16.48
2022-11-04T08:16:21.953Z,16.88
2022-11-04T08:18:52.845Z,21.50
2022-11-04T08:21:22.143Z,18.60
2022-11-04T08:23:51.619Z,18.90
2022-11-04T08:26:20.837Z,12.60
2022-11-04T08:28:47.949Z,14.50
2022-11-04T08:31:25.433Z,14.93
2022-11-04T08:33:55.890Z,14.57
2022-11-04T08:36:30.239Z,12.63
2022-11-04T08:41:29.538Z,7.82
2022-11-04T08:44:00.858Z,13.52
2022-11-04T08:46:30.754Z,12.10
2022-11-04T08:48:58.346Z,13.60
2022-11-04T08:51:28.401Z,11.65
2022-11-04T08:53:56.141Z,9.75
2022-11-04T08:56:28.866Z,10.50
2022-11-04T08:59:02.599Z,12.38
2022-11-04T09:01:35.983Z,17.88
2022-11-04T09:04:05.564Z,9.18
2022-11-04T09:06:39.807Z,8.45
2022-11-04T09:09:11.556Z,12.15
2022-11-04T09:11:43.160Z,6.85
2022-11-04T09:14:11.585Z,8.65
2022-11-04T09:16:41.723Z,10.43
2022-11-04T09:19:09.050Z,10.13
2022-11-04T09:21:36.882Z,13.45
2022-11-04T09:24:05.056Z,11.82
2022-11-04T09:26:32.044Z,9.52
2022-11-04T09:28:59.913Z,10.02
2022-11-04T09:31:30.378Z,7.13
2022-11-04T09:33:57.776Z,11.02
2022-11-04T09:36:24.917Z,9.18
2022-11-04T09:38:52.392Z,11.80
2022-11-04T09:41:51.794Z,8.75
2022-11-04T09:44:29.124Z,12.32
2022-11-04T09:47:02.879Z,6.97
2022-11-04T09:49:38.118Z,10.55
2022-11-04T09:52:18.859Z,10.20
2022-11-04T09:55:02.134Z,10.55
2022-11-04T09:57:29.448Z,8.82
2022-11-04T09:59:58.378Z,9.25
2022-11-04T10:02:42.207Z,10.07
2022-11-04T10:05:40.477Z,10.37
2022-11-04T10:08:31.646Z,10.63
2022-11-04T10:11:28.391Z,13.45
2022-11-04T10:14:22.689Z,8.52
2022-11-04T10:17:28.771Z,10.43
2022-11-04T10:20:18.389Z,11.77
2022-11-04T10:22:54.215Z,10.10
2022-11-04T10:26:01.110Z,9.57
2022-11-04T10:28:43.408Z,13.45
2022-11-04T10:31:18.761Z,12.80
2022-11-04T10:33:55.066Z,13.00
2022-11-04T10:36:24.955Z,14.82
2022-11-04T10:38:55.513Z,11.40
2022-11-04T10:41:39.058Z,10.38
2022-11-04T10:44:25.132Z,10.93
2022-11-04T10:47:35.370Z,9.43
2022-11-04T10:50:37.638Z,11.27
2022-11-04T10:53:20.119Z,9.80
2022-11-04T10:56:12.114Z,12.20
2022-11-04T10:58:46.894Z,12.23
2022-11-04T11:01:35.191Z,10.02
2022-11-04T11:04:07.633Z,9.43
2022-11-04T11:06:36.721Z,11.65
2022-11-04T11:09:21.326Z,10.48
2022-11-04T11:14:33.118Z,15.07
2022-11-04T11:17:18.357Z,12.27
2022-11-04T11:20:19.726Z,10.23
2022-11-04T11:22:54.838Z,12.07
2022-11-04T11:25:31.753Z,12.10
2022-11-04T11:28:26.008Z,11.95
2022-11-04T11:30:59.007Z,12.57
2022-11-04T11:33:31.319Z,11.52
2022-11-04T11:36:17.826Z,11.05
2022-11-04T11:38:59.295Z,15.07
2022-11-04T11:41:33.918Z,15.20
2022-11-04T11:44:17.532Z,18.17
2022-11-04T11:46:57.037Z,11.20
2022-11-04T11:49:34.289Z,14.38
2022-11-04T11:52:38.361Z,14.95
2022-11-04T11:55:29.058Z,12.63
2022-11-04T12:02:04.276Z,19.10
2022-11-04T12:10:52.558Z,15.60
2022-11-04T12:13:30.206Z,9.18
2022-11-04T12:16:26.994Z,15.00
2022-11-04T12:19:09.840Z,11.90
2022-11-04T12:21:54.777Z,12.90
2022-11-04T12:24:30.725Z,13.93
2022-11-04T12:27:16.035Z,13.55
2022-11-04T12:30:06.563Z,14.23
2022-11-04T12:32:46.924Z,13.77
2022-11-04T12:35:30.450Z,17.33
2022-11-04T12:38:19.265Z,17.10
2022-11-04T12:44:27.478Z,14.27
2022-11-04T12:47:15.785Z,32.35
2022-11-04T12:50:20.199Z,9.18
2022-11-04T12:53:29.858Z,18.85
2022-11-04T12:56:10.369Z,11.65
2022-11-04T12:59:05.169Z,14.88
2022-11-04T13:01:48.467Z,12.48
2022-11-04T13:04:26.289Z,13.43
2022-11-04T13:07:01.105Z,12.70
2022-11-04T13:09:34.885Z,14.10
2022-11-04T13:12:19.960Z,15.82
2022-11-04T13:15:01.847Z,13.73
2022-11-04T13:17:41.016Z,17.95
2022-11-04T13:20:11.673Z,9.50
2022-11-04T13:22:50.394Z,20.33
2022-11-04T13:25:37.276Z,10.65
2022-11-04T13:28:04.670Z,13.85
2022-11-04T13:31:12.436Z,14.18
2022-11-04T13:34:06.771Z,12.20
2022-11-04T13:36:45.985Z,11.85
2022-11-04T13:39:27.002Z,21.17
2022-11-04T13:42:06.140Z,17.48
2022-11-04T13:44:42.463Z,14.35
2022-11-04T13:47:22.351Z,23.60
2022-11-04T13:49:55.216Z,12.10
2022-11-04T13:52:30.062Z,14.43
2022-11-04T13:55:06.731Z,12.77
2022-11-04T13:57:56.944Z,12.15
2022-11-04T14:00:30.347Z,16.85
2022-11-04T14:03:22.934Z,22.30
2022-11-04T14:06:07.110Z,13.93
2022-11-04T14:08:35.386Z,22.25
2022-11-04T14:11:10.300Z,14.57
2022-11-04T14:13:44.281Z,17.35
2022-11-04T14:16:24.733Z,15.70
2022-11-04T14:18:54.700Z,12.70
2022-11-04T14:21:26.966Z,17.85
2022-11-04T14:24:16.263Z,20.48
2022-11-04T14:26:49.015Z,16.90
2022-11-04T14:29:28.381Z,18.42
2022-11-04T14:32:00.858Z,16.88
2022-11-04T14:34:37.799Z,15.73
2022-11-04T14:37:27.115Z,18.02
2022-11-04T14:39:59.852Z,19.83
2022-11-04T14:42:49.335Z,18.75
2022-11-04T14:45:32.378Z,19.00
2022-11-04T14:48:23.538Z,25.85
2022-11-04T14:50:55.622Z,19.65
2022-11-04T14:53:34.092Z,21.33
2022-11-04T14:56:36.953Z,22.63
2022-11-04T14:59:07.110Z,31.67
2022-11-04T15:01:40.197Z,24.35
2022-11-04T15:04:32.749Z,30.10
2022-11-04T15:07:03.657Z,25.45
2022-11-04T15:09:41.081Z,25.27
2022-11-04T15:12:33.940Z,27.80
2022-11-04T15:15:01.780Z,24.80
2022-11-04T15:17:33.677Z,16.95
2022-11-04T15:20:04.802Z,22.98
2022-11-04T15:22:32.377Z,17.75
2022-11-04T15:25:05.966Z,22.02
2022-11-04T15:27:34.953Z,25.45
2022-11-04T15:30:05.480Z,18.80
2022-11-04T15:32:33.149Z,26.27
2022-11-04T15:35:01.606Z,18.23
2022-11-04T15:37:30.909Z,20.13
2022-11-04T15:39:59.054Z,17.98
2022-11-04T15:42:44.475Z,20.35
2022-11-04T15:45:37.161Z,18.75
2022-11-04T15:48:34.824Z,14.38
2022-11-04T15:51:23.235Z,17.48
2022-11-04T15:53:57.525Z,17.80
2022-11-04T15:56:44.507Z,16.75
2022-11-04T15:59:21.389Z,16.13
2022-11-04T16:01:52.227Z,24.48
2022-11-04T16:04:24.155Z,19.63
2022-11-04T16:07:45.935Z,22.42
2022-11-04T16:10:37.819Z,10.52
2022-11-04T16:13:16.972Z,14.60
2022-11-04T16:15:48.549Z,10.77
2022-11-04T16:18:38.975Z,15.20
2022-11-04T16:21:25.810Z,13.05
2022-11-04T16:24:17.372Z,14.27
2022-11-04T16:26:46.403Z,10.52
2022-11-04T16:29:22.037Z,11.48
2022-11-04T16:32:26.958Z,8.02
2022-11-04T16:35:00.607Z,4.97
2022-11-04T16:37:28.118Z,7.32
2022-11-04T16:39:55.221Z,5.00
2022-11-04T16:42:22.575Z,5.45
2022-11-04T16:45:00.092Z,3.40
2022-11-04T16:47:29.944Z,9.00
2022-11-04T16:50:01.560Z,7.10
2022-11-04T16:52:29.109Z,3.47
2022-11-04T16:54:56.580Z,3.03
2022-11-04T16:57:25.543Z,4.30
2022-11-04T16:59:52.638Z,3.58
2022-11-04T17:02:37.435Z,5.40
2022-11-04T17:05:05.930Z,4.68
2022-11-04T17:07:52.013Z,2.55
2022-11-04T17:10:28.588Z,1.65
2022-11-04T17:12:56.603Z,2.33
2022-11-04T17:15:25.947Z,1.55
2022-11-04T17:17:52.926Z,1.48
2022-11-04T17:20:20.412Z,6.68
2022-11-04T17:22:48.989Z,2.53
2022-11-04T17:25:20.922Z,1.77
2022-11-04T17:27:49.053Z,2.42
2022-11-04T17:30:17.773Z,3.53
2022-11-04T17:32:46.753Z,5.53
2022-11-04T17:35:16.595Z,3.17
2022-11-04T17:37:44.312Z,2.03
2022-11-04T17:40:17.345Z,4.82
2022-11-04T17:43:06.956Z,1.40
2022-11-04T17:45:39.307Z,3.13
2022-11-04T17:48:08.495Z,3.80
2022-11-04T17:50:39.438Z,3.35
2022-11-04T17:53:06.560Z,4.40
2022-11-04T17:55:39.436Z,3.65
2022-11-04T17:58:06.456Z,2.78
2022-11-04T18:00:33.726Z,4.70
2022-11-04T18:03:00.760Z,5.95
2022-11-04T18:05:27.692Z,2.67
2022-11-04T18:07:56.452Z,6.63
2022-11-04T18:10:23.514Z,2.22
2022-11-04T18:12:51.611Z,4.85
2022-11-04T18:15:18.987Z,2.42
2022-11-04T18:17:46.326Z,4.13
2022-11-04T18:20:15.529Z,4.07
2022-11-04T18:22:44.552Z,3.47
2022-11-04T18:25:12.678Z,2.90
2022-11-04T18:27:39.962Z,3.60
2022-11-04T18:30:07.878Z,3.90
2022-11-04T18:32:34.974Z,8.43
2022-11-04T18:35:01.967Z,7.30
2022-11-04T18:37:29.591Z,2.40
2022-11-04T18:39:56.869Z,3.28
2022-11-04T18:42:23.954Z,5.90
2022-11-04T18:44:51.058Z,4.78
2022-11-04T18:47:18.121Z,7.28
2022-11-04T18:49:47.429Z,5.72
2022-11-04T18:52:14.416Z,5.22
2022-11-04T18:54:43.755Z,5.88
2022-11-04T18:57:12.083Z,4.13
2022-11-04T18:59:39.334Z,4.82
2022-11-04T19:02:07.192Z,5.00
2022-11-04T19:04:34.517Z,7.18
2022-11-04T19:07:01.956Z,6.13
2022-11-04T19:12:35.393Z,10.27
2022-11-04T19:15:04.509Z,12.48
2022-11-04T19:17:31.601Z,14.65
2022-11-04T19:19:59.737Z,7.45
2022-11-04T19:22:26.851Z,5.85
2022-11-04T19:24:53.922Z,6.72
2022-11-04T19:27:22.966Z,5.88
2022-11-04T19:29:50.576Z,3.90
2022-11-04T19:32:18.368Z,7.47
2022-11-04T19:34:45.575Z,5.45
2022-11-04T19:37:13.044Z,8.07
2022-11-04T19:39:40.219Z,7.07
2022-11-04T19:42:26.186Z,8.32
2022-11-04T19:44:53.289Z,8.57
2022-11-04T19:47:20.425Z,6.93
2022-11-04T19:49:48.609Z,5.80
2022-11-04T19:52:15.767Z,7.28
2022-11-04T19:54:42.754Z,8.23
2022-11-04T19:57:09.719Z,6.28
2022-11-04T19:59:36.745Z,5.68
2022-11-04T20:02:03.806Z,5.68
2022-11-04T20:04:31.117Z,5.82
2022-11-04T20:06:58.122Z,5.00
2022-11-04T20:09:26.036Z,7.93
2022-11-04T20:12:11.991Z,7.22
2022-11-04T20:14:39.247Z,6.20
2022-11-04T20:17:07.125Z,7.13
2022-11-04T20:19:35.287Z,5.32
2022-11-04T20:22:02.883Z,8.00
2022-11-04T20:24:30.194Z,9.35
2022-11-04T20:26:58.240Z,7.85
2022-11-04T20:29:26.544Z,8.07
2022-11-04T20:31:54.542Z,9.27
2022-11-04T20:34:21.562Z,8.68
2022-11-04T20:36:48.554Z,6.40
2022-11-04T20:39:20.242Z,9.23
2022-11-04T20:41:47.542Z,8.25
2022-11-04T20:44:15.847Z,9.95
2022-11-04T20:46:44.630Z,8.70
2022-11-04T20:49:13.327Z,8.57
2022-11-04T20:51:48.690Z,11.82
2022-11-04T20:54:16.105Z,6.95
2022-11-04T20:56:44.325Z,9.25
2022-11-04T20:59:13.771Z,8.93
2022-11-04T21:01:44.457Z,7.85
2022-11-04T21:04:21.916Z,12.02
2022-11-04T21:06:51.441Z,9.95
2022-11-04T21:09:21.330Z,10.75
2022-11-04T21:11:50.277Z,8.27
2022-11-04T21:14:19.671Z,9.02
2022-11-04T21:16:47.900Z,11.18
2022-11-04T21:19:16.189Z,11.57
2022-11-04T21:21:45.016Z,9.32
2022-11-04T21:24:15.791Z,9.80
2022-11-04T21:26:43.879Z,11.00
2022-11-04T21:29:18.283Z,11.68
2022-11-04T21:34:15.577Z,13.05
2022-11-04T21:36:42.731Z,9.70
2022-11-04T21:39:11.102Z,14.10
2022-11-04T21:41:38.874Z,10.38
2022-11-04T21:44:09.852Z,11.20
2022-11-04T21:46:37.214Z,11.65
2022-11-04T21:49:06.313Z,9.10
2022-11-04T21:51:34.643Z,10.23
2022-11-04T21:54:07.030Z,9.95
2022-11-04T21:56:35.071Z,11.45
2022-11-04T21:59:04.250Z,10.88
2022-11-04T22:01:32.571Z,8.85
2022-11-04T22:04:02.055Z,12.68
2022-11-04T22:06:34.538Z,9.80
2022-11-04T22:09:08.753Z,12.05
2022-11-04T22:11:38.861Z,9.52
2022-11-04T22:14:08.438Z,14.73
2022-11-04T22:16:39.382Z,12.35
2022-11-04T22:19:13.566Z,12.00
2022-11-04T22:21:43.834Z,13.15
2022-11-04T22:24:17.398Z,12.20
2022-11-04T22:26:44.637Z,12.10
2022-11-04T22:29:11.713Z,9.18
2022-11-04T22:31:42.695Z,9.40
2022-11-04T22:34:10.057Z,12.63
2022-11-04T22:36:38.009Z,12.88
2022-11-04T22:39:05.761Z,14.88
2022-11-04T22:41:34.387Z,16.75
2022-11-04T22:44:03.309Z,12.80
2022-11-04T22:46:35.088Z,12.65
2022-11-04T22:49:02.082Z,14.43
2022-11-04T22:51:31.254Z,10.60
2022-11-04T22:54:04.489Z,12.57
2022-11-04T22:56:31.834Z,11.10
2022-11-04T22:59:00.326Z,11.57
2022-11-04T23:01:27.454Z,11.88
2022-11-04T23:03:54.603Z,9.65
2022-11-04T23:06:21.651Z,11.85
2022-11-04T23:08:49.339Z,11.98
2022-11-04T23:11:43.598Z,11.43
2022-11-04T23:14:32.440Z,14.50
2022-11-04T23:17:18.532Z,10.02
2022-11-04T23:19:45.984Z,11.43
2022-11-04T23:22:31.301Z,11.68
2022-11-04T23:25:09.856Z,11.73
2022-11-04T23:28:06.327Z,13.00
2022-11-04T23:30:38.723Z,10.85
2022-11-04T23:33:09.992Z,10.23
2022-11-04T23:36:03.661Z,13.48
2022-11-04T23:38:31.861Z,12.52
2022-11-04T23:41:25.529Z,15.00
2022-11-04T23:43:53.183Z,16.02
2022-11-04T23:46:43.058Z,12.93
2022-11-04T23:49:31.241Z,16.30
2022-11-04T23:52:16.987Z,12.35
2022-11-04T23:55:02.516Z,14.73
2022-11-04T23:57:49.362Z,12.43
